<?xml version="1.0" encoding="UTF-8" standalone="no" ?>
<gpx xmlns="http://www.topografix.com/GPX/1/1" xmlns:xsi="http://www.w3.org/2001/XMLSchema-instance" xsi:schemaLocation="http://www.topografix.com/GPX/1/1 http://www.topografix.com/GPX/1/1/gpx.xsd" version="1.1" creator="VisuGPX - https://www.visugpx.com">
  <metadata>
    <name>Vacances 2021</name>
  </metadata>
  <trk>
    <name><![CDATA[Journal actif: 2021-07-30 18:01]]></name>
    <trkseg>
      <trkpt lat="48.68637" lon="-1.36758">
        <ele>67.43</ele>
        <time>2021-07-30T20:01:39Z</time>
      </trkpt>
      <trkpt lat="48.68627" lon="-1.3675">
        <ele>70.31</ele>
        <time>2021-07-30T20:01:50Z</time>
      </trkpt>
      <trkpt lat="48.68623" lon="-1.36749">
        <ele>70.79</ele>
        <time>2021-07-30T20:01:51Z</time>
      </trkpt>
      <trkpt lat="48.68619" lon="-1.36748">
        <ele>71.27</ele>
        <time>2021-07-30T20:01:52Z</time>
      </trkpt>
      <trkpt lat="48.68616" lon="-1.36747">
        <ele>72.24</ele>
        <time>2021-07-30T20:01:53Z</time>
      </trkpt>
      <trkpt lat="48.68613" lon="-1.36743">
        <ele>72.72</ele>
        <time>2021-07-30T20:01:54Z</time>
      </trkpt>
      <trkpt lat="48.68609" lon="-1.36739">
        <ele>73.68</ele>
        <time>2021-07-30T20:01:55Z</time>
      </trkpt>
      <trkpt lat="48.68604" lon="-1.36734">
        <ele>74.16</ele>
        <time>2021-07-30T20:01:56Z</time>
      </trkpt>
      <trkpt lat="48.68605" lon="-1.36728">
        <ele>75.12</ele>
        <time>2021-07-30T20:01:57Z</time>
      </trkpt>
      <trkpt lat="48.68605" lon="-1.36728">
        <ele>75.6</ele>
        <time>2021-07-30T20:01:58Z</time>
      </trkpt>
      <trkpt lat="48.68607" lon="-1.36715">
        <ele>76.56</ele>
        <time>2021-07-30T20:01:59Z</time>
      </trkpt>
      <trkpt lat="48.68607" lon="-1.36715">
        <ele>77.04</ele>
        <time>2021-07-30T20:02:00Z</time>
      </trkpt>
      <trkpt lat="48.68608" lon="-1.3671">
        <ele>77.52</ele>
        <time>2021-07-30T20:02:01Z</time>
      </trkpt>
      <trkpt lat="48.68609" lon="-1.36706">
        <ele>77.52</ele>
        <time>2021-07-30T20:02:02Z</time>
      </trkpt>
      <trkpt lat="48.68609" lon="-1.36703">
        <ele>78</ele>
        <time>2021-07-30T20:02:03Z</time>
      </trkpt>
      <trkpt lat="48.68609" lon="-1.36702">
        <ele>78</ele>
        <time>2021-07-30T20:02:04Z</time>
      </trkpt>
      <trkpt lat="48.68609" lon="-1.36701">
        <ele>78.48</ele>
        <time>2021-07-30T20:02:05Z</time>
      </trkpt>
      <trkpt lat="48.68597" lon="-1.36684">
        <ele>78.97</ele>
        <time>2021-07-30T20:02:07Z</time>
      </trkpt>
      <trkpt lat="48.68588" lon="-1.36688">
        <ele>79.45</ele>
        <time>2021-07-30T20:02:08Z</time>
      </trkpt>
      <trkpt lat="48.68582" lon="-1.3669">
        <ele>79.93</ele>
        <time>2021-07-30T20:02:09Z</time>
      </trkpt>
      <trkpt lat="48.68576" lon="-1.36688">
        <ele>80.41</ele>
        <time>2021-07-30T20:02:10Z</time>
      </trkpt>
      <trkpt lat="48.68576" lon="-1.36688">
        <ele>81.37</ele>
        <time>2021-07-30T20:02:11Z</time>
      </trkpt>
      <trkpt lat="48.68569" lon="-1.36686">
        <ele>81.85</ele>
        <time>2021-07-30T20:02:12Z</time>
      </trkpt>
      <trkpt lat="48.68561" lon="-1.36684">
        <ele>82.33</ele>
        <time>2021-07-30T20:02:13Z</time>
      </trkpt>
      <trkpt lat="48.68545" lon="-1.36676">
        <ele>83.77</ele>
        <time>2021-07-30T20:02:14Z</time>
      </trkpt>
      <trkpt lat="48.68545" lon="-1.36676">
        <ele>85.21</ele>
        <time>2021-07-30T20:02:15Z</time>
      </trkpt>
      <trkpt lat="48.68529" lon="-1.36661">
        <ele>85.21</ele>
        <time>2021-07-30T20:02:16Z</time>
      </trkpt>
      <trkpt lat="48.68529" lon="-1.36661">
        <ele>85.69</ele>
        <time>2021-07-30T20:02:17Z</time>
      </trkpt>
      <trkpt lat="48.68521" lon="-1.36652">
        <ele>86.18</ele>
        <time>2021-07-30T20:02:18Z</time>
      </trkpt>
      <trkpt lat="48.68516" lon="-1.36643">
        <ele>87.62</ele>
        <time>2021-07-30T20:02:19Z</time>
      </trkpt>
      <trkpt lat="48.68506" lon="-1.36621">
        <ele>88.58</ele>
        <time>2021-07-30T20:02:20Z</time>
      </trkpt>
      <trkpt lat="48.68506" lon="-1.36621">
        <ele>89.54</ele>
        <time>2021-07-30T20:02:21Z</time>
      </trkpt>
      <trkpt lat="48.68503" lon="-1.36606">
        <ele>90.02</ele>
        <time>2021-07-30T20:02:22Z</time>
      </trkpt>
      <trkpt lat="48.68501" lon="-1.36592">
        <ele>91.94</ele>
        <time>2021-07-30T20:02:23Z</time>
      </trkpt>
      <trkpt lat="48.68497" lon="-1.36566">
        <ele>91.94</ele>
        <time>2021-07-30T20:02:24Z</time>
      </trkpt>
      <trkpt lat="48.68483" lon="-1.36488">
        <ele>95.31</ele>
        <time>2021-07-30T20:02:33Z</time>
      </trkpt>
      <trkpt lat="48.68481" lon="-1.3648">
        <ele>95.79</ele>
        <time>2021-07-30T20:02:34Z</time>
      </trkpt>
      <trkpt lat="48.68479" lon="-1.36472">
        <ele>95.79</ele>
        <time>2021-07-30T20:02:35Z</time>
      </trkpt>
      <trkpt lat="48.68476" lon="-1.3646">
        <ele>95.79</ele>
        <time>2021-07-30T20:02:36Z</time>
      </trkpt>
      <trkpt lat="48.68476" lon="-1.3646">
        <ele>95.79</ele>
        <time>2021-07-30T20:02:37Z</time>
      </trkpt>
      <trkpt lat="48.68475" lon="-1.36455">
        <ele>96.27</ele>
        <time>2021-07-30T20:02:38Z</time>
      </trkpt>
      <trkpt lat="48.68474" lon="-1.36452">
        <ele>96.27</ele>
        <time>2021-07-30T20:02:39Z</time>
      </trkpt>
      <trkpt lat="48.68447" lon="-1.36437">
        <ele>96.75</ele>
        <time>2021-07-30T20:02:40Z</time>
      </trkpt>
      <trkpt lat="48.68417" lon="-1.36467">
        <ele>96.27</ele>
        <time>2021-07-30T20:02:51Z</time>
      </trkpt>
      <trkpt lat="48.68406" lon="-1.36477">
        <ele>94.35</ele>
        <time>2021-07-30T20:03:03Z</time>
      </trkpt>
      <trkpt lat="48.68406" lon="-1.36477">
        <ele>94.35</ele>
        <time>2021-07-30T20:03:51Z</time>
      </trkpt>
      <trkpt lat="48.68399" lon="-1.36474">
        <ele>94.35</ele>
        <time>2021-07-30T20:03:52Z</time>
      </trkpt>
      <trkpt lat="48.68413" lon="-1.36471">
        <ele>94.35</ele>
        <time>2021-07-30T20:04:03Z</time>
      </trkpt>
      <trkpt lat="48.68431" lon="-1.36455">
        <ele>95.31</ele>
        <time>2021-07-30T20:04:20Z</time>
      </trkpt>
      <trkpt lat="48.68436" lon="-1.3645">
        <ele>95.31</ele>
        <time>2021-07-30T20:04:22Z</time>
      </trkpt>
      <trkpt lat="48.68439" lon="-1.36447">
        <ele>95.31</ele>
        <time>2021-07-30T20:04:23Z</time>
      </trkpt>
      <trkpt lat="48.68442" lon="-1.36443">
        <ele>95.31</ele>
        <time>2021-07-30T20:04:24Z</time>
      </trkpt>
      <trkpt lat="48.68444" lon="-1.3644">
        <ele>95.31</ele>
        <time>2021-07-30T20:04:25Z</time>
      </trkpt>
      <trkpt lat="48.68447" lon="-1.36438">
        <ele>95.31</ele>
        <time>2021-07-30T20:04:26Z</time>
      </trkpt>
      <trkpt lat="48.68458" lon="-1.3642">
        <ele>95.79</ele>
        <time>2021-07-30T20:04:27Z</time>
      </trkpt>
      <trkpt lat="48.68452" lon="-1.36396">
        <ele>95.79</ele>
        <time>2021-07-30T20:04:28Z</time>
      </trkpt>
      <trkpt lat="48.68434" lon="-1.36362">
        <ele>96.75</ele>
        <time>2021-07-30T20:04:35Z</time>
      </trkpt>
      <trkpt lat="48.68432" lon="-1.36355">
        <ele>96.75</ele>
        <time>2021-07-30T20:04:36Z</time>
      </trkpt>
      <trkpt lat="48.68412" lon="-1.36295">
        <ele>95.79</ele>
        <time>2021-07-30T20:04:45Z</time>
      </trkpt>
      <trkpt lat="48.68403" lon="-1.36286">
        <ele>95.79</ele>
        <time>2021-07-30T20:04:46Z</time>
      </trkpt>
      <trkpt lat="48.68403" lon="-1.36286">
        <ele>95.79</ele>
        <time>2021-07-30T20:04:47Z</time>
      </trkpt>
      <trkpt lat="48.68346" lon="-1.36224">
        <ele>95.79</ele>
        <time>2021-07-30T20:04:57Z</time>
      </trkpt>
      <trkpt lat="48.68327" lon="-1.36199">
        <ele>97.23</ele>
        <time>2021-07-30T20:05:01Z</time>
      </trkpt>
      <trkpt lat="48.68322" lon="-1.3619">
        <ele>97.23</ele>
        <time>2021-07-30T20:05:02Z</time>
      </trkpt>
      <trkpt lat="48.68313" lon="-1.36168">
        <ele>97.23</ele>
        <time>2021-07-30T20:05:03Z</time>
      </trkpt>
      <trkpt lat="48.68313" lon="-1.36168">
        <ele>97.23</ele>
        <time>2021-07-30T20:05:04Z</time>
      </trkpt>
      <trkpt lat="48.68308" lon="-1.36157">
        <ele>97.23</ele>
        <time>2021-07-30T20:05:05Z</time>
      </trkpt>
      <trkpt lat="48.68304" lon="-1.36143">
        <ele>97.71</ele>
        <time>2021-07-30T20:05:06Z</time>
      </trkpt>
      <trkpt lat="48.68298" lon="-1.36116">
        <ele>98.19</ele>
        <time>2021-07-30T20:05:07Z</time>
      </trkpt>
      <trkpt lat="48.68259" lon="-1.359">
        <ele>99.15</ele>
        <time>2021-07-30T20:05:23Z</time>
      </trkpt>
      <trkpt lat="48.68226" lon="-1.35722">
        <ele>100.11</ele>
        <time>2021-07-30T20:05:36Z</time>
      </trkpt>
      <trkpt lat="48.68218" lon="-1.35659">
        <ele>102.04</ele>
        <time>2021-07-30T20:05:44Z</time>
      </trkpt>
      <trkpt lat="48.68218" lon="-1.35658">
        <ele>102.52</ele>
        <time>2021-07-30T20:05:45Z</time>
      </trkpt>
      <trkpt lat="48.68213" lon="-1.35636">
        <ele>103.48</ele>
        <time>2021-07-30T20:05:47Z</time>
      </trkpt>
      <trkpt lat="48.68211" lon="-1.35629">
        <ele>103.96</ele>
        <time>2021-07-30T20:05:48Z</time>
      </trkpt>
      <trkpt lat="48.68209" lon="-1.35622">
        <ele>103.96</ele>
        <time>2021-07-30T20:05:49Z</time>
      </trkpt>
      <trkpt lat="48.68207" lon="-1.35615">
        <ele>104.44</ele>
        <time>2021-07-30T20:05:50Z</time>
      </trkpt>
      <trkpt lat="48.68205" lon="-1.35609">
        <ele>104.92</ele>
        <time>2021-07-30T20:05:51Z</time>
      </trkpt>
      <trkpt lat="48.68203" lon="-1.35602">
        <ele>104.92</ele>
        <time>2021-07-30T20:05:52Z</time>
      </trkpt>
      <trkpt lat="48.68201" lon="-1.35595">
        <ele>105.4</ele>
        <time>2021-07-30T20:05:53Z</time>
      </trkpt>
      <trkpt lat="48.68197" lon="-1.35592">
        <ele>105.4</ele>
        <time>2021-07-30T20:05:54Z</time>
      </trkpt>
      <trkpt lat="48.68169" lon="-1.35557">
        <ele>105.88</ele>
        <time>2021-07-30T20:06:02Z</time>
      </trkpt>
      <trkpt lat="48.68165" lon="-1.35556">
        <ele>105.88</ele>
        <time>2021-07-30T20:06:03Z</time>
      </trkpt>
      <trkpt lat="48.68161" lon="-1.35555">
        <ele>105.88</ele>
        <time>2021-07-30T20:06:04Z</time>
      </trkpt>
      <trkpt lat="48.68152" lon="-1.35554">
        <ele>105.88</ele>
        <time>2021-07-30T20:06:06Z</time>
      </trkpt>
      <trkpt lat="48.68147" lon="-1.35544">
        <ele>105.88</ele>
        <time>2021-07-30T20:06:07Z</time>
      </trkpt>
      <trkpt lat="48.68124" lon="-1.35538">
        <ele>105.88</ele>
        <time>2021-07-30T20:06:11Z</time>
      </trkpt>
      <trkpt lat="48.68118" lon="-1.35537">
        <ele>105.4</ele>
        <time>2021-07-30T20:06:12Z</time>
      </trkpt>
      <trkpt lat="48.68112" lon="-1.35536">
        <ele>105.4</ele>
        <time>2021-07-30T20:06:13Z</time>
      </trkpt>
      <trkpt lat="48.6807" lon="-1.35532">
        <ele>103.48</ele>
        <time>2021-07-30T20:06:22Z</time>
      </trkpt>
      <trkpt lat="48.68022" lon="-1.35526">
        <ele>100.11</ele>
        <time>2021-07-30T20:06:30Z</time>
      </trkpt>
      <trkpt lat="48.67908" lon="-1.35516">
        <ele>96.27</ele>
        <time>2021-07-30T20:06:42Z</time>
      </trkpt>
      <trkpt lat="48.67735" lon="-1.35502">
        <ele>93.87</ele>
        <time>2021-07-30T20:06:57Z</time>
      </trkpt>
      <trkpt lat="48.67603" lon="-1.35491">
        <ele>96.27</ele>
        <time>2021-07-30T20:07:09Z</time>
      </trkpt>
      <trkpt lat="48.675" lon="-1.35482">
        <ele>96.27</ele>
        <time>2021-07-30T20:07:20Z</time>
      </trkpt>
      <trkpt lat="48.6734" lon="-1.35468">
        <ele>97.71</ele>
        <time>2021-07-30T20:07:34Z</time>
      </trkpt>
      <trkpt lat="48.67321" lon="-1.35466">
        <ele>98.19</ele>
        <time>2021-07-30T20:07:40Z</time>
      </trkpt>
      <trkpt lat="48.67299" lon="-1.35464">
        <ele>98.19</ele>
        <time>2021-07-30T20:08:01Z</time>
      </trkpt>
      <trkpt lat="48.67279" lon="-1.35462">
        <ele>98.19</ele>
        <time>2021-07-30T20:08:04Z</time>
      </trkpt>
      <trkpt lat="48.67271" lon="-1.35462">
        <ele>98.19</ele>
        <time>2021-07-30T20:08:05Z</time>
      </trkpt>
      <trkpt lat="48.67164" lon="-1.35452">
        <ele>97.23</ele>
        <time>2021-07-30T20:08:15Z</time>
      </trkpt>
      <trkpt lat="48.66994" lon="-1.35449">
        <ele>90.5</ele>
        <time>2021-07-30T20:08:28Z</time>
      </trkpt>
      <trkpt lat="48.66981" lon="-1.35452">
        <ele>90.02</ele>
        <time>2021-07-30T20:08:29Z</time>
      </trkpt>
      <trkpt lat="48.66968" lon="-1.35455">
        <ele>88.1</ele>
        <time>2021-07-30T20:08:30Z</time>
      </trkpt>
      <trkpt lat="48.66958" lon="-1.35467">
        <ele>86.66</ele>
        <time>2021-07-30T20:08:31Z</time>
      </trkpt>
      <trkpt lat="48.66949" lon="-1.35478">
        <ele>85.21</ele>
        <time>2021-07-30T20:08:32Z</time>
      </trkpt>
      <trkpt lat="48.66943" lon="-1.35495">
        <ele>81.85</ele>
        <time>2021-07-30T20:08:33Z</time>
      </trkpt>
      <trkpt lat="48.66939" lon="-1.35513">
        <ele>79.93</ele>
        <time>2021-07-30T20:08:34Z</time>
      </trkpt>
      <trkpt lat="48.66935" lon="-1.3553">
        <ele>78.97</ele>
        <time>2021-07-30T20:08:35Z</time>
      </trkpt>
      <trkpt lat="48.66936" lon="-1.35549">
        <ele>78.48</ele>
        <time>2021-07-30T20:08:36Z</time>
      </trkpt>
      <trkpt lat="48.66935" lon="-1.3561">
        <ele>76.56</ele>
        <time>2021-07-30T20:08:39Z</time>
      </trkpt>
      <trkpt lat="48.66933" lon="-1.35628">
        <ele>76.56</ele>
        <time>2021-07-30T20:08:40Z</time>
      </trkpt>
      <trkpt lat="48.66927" lon="-1.35641">
        <ele>78</ele>
        <time>2021-07-30T20:08:41Z</time>
      </trkpt>
      <trkpt lat="48.66921" lon="-1.35656">
        <ele>79.45</ele>
        <time>2021-07-30T20:08:42Z</time>
      </trkpt>
      <trkpt lat="48.66913" lon="-1.35663">
        <ele>79.45</ele>
        <time>2021-07-30T20:08:43Z</time>
      </trkpt>
      <trkpt lat="48.66892" lon="-1.3567">
        <ele>78</ele>
        <time>2021-07-30T20:08:44Z</time>
      </trkpt>
      <trkpt lat="48.66892" lon="-1.3567">
        <ele>76.08</ele>
        <time>2021-07-30T20:08:45Z</time>
      </trkpt>
      <trkpt lat="48.66882" lon="-1.35665">
        <ele>75.12</ele>
        <time>2021-07-30T20:08:46Z</time>
      </trkpt>
      <trkpt lat="48.66872" lon="-1.35655">
        <ele>73.2</ele>
        <time>2021-07-30T20:08:47Z</time>
      </trkpt>
      <trkpt lat="48.66863" lon="-1.35646">
        <ele>71.76</ele>
        <time>2021-07-30T20:08:48Z</time>
      </trkpt>
      <trkpt lat="48.66856" lon="-1.3563">
        <ele>71.27</ele>
        <time>2021-07-30T20:08:49Z</time>
      </trkpt>
      <trkpt lat="48.66851" lon="-1.3561">
        <ele>71.27</ele>
        <time>2021-07-30T20:08:50Z</time>
      </trkpt>
      <trkpt lat="48.66793" lon="-1.35441">
        <ele>59.74</ele>
        <time>2021-07-30T20:08:59Z</time>
      </trkpt>
      <trkpt lat="48.66755" lon="-1.35399">
        <ele>55.89</ele>
        <time>2021-07-30T20:09:02Z</time>
      </trkpt>
      <trkpt lat="48.66741" lon="-1.35386">
        <ele>54.45</ele>
        <time>2021-07-30T20:09:03Z</time>
      </trkpt>
      <trkpt lat="48.66726" lon="-1.35374">
        <ele>52.53</ele>
        <time>2021-07-30T20:09:04Z</time>
      </trkpt>
      <trkpt lat="48.6671" lon="-1.35368">
        <ele>51.09</ele>
        <time>2021-07-30T20:09:05Z</time>
      </trkpt>
      <trkpt lat="48.66694" lon="-1.35362">
        <ele>50.13</ele>
        <time>2021-07-30T20:09:06Z</time>
      </trkpt>
      <trkpt lat="48.66675" lon="-1.35359">
        <ele>48.2</ele>
        <time>2021-07-30T20:09:07Z</time>
      </trkpt>
      <trkpt lat="48.66657" lon="-1.35357">
        <ele>46.76</ele>
        <time>2021-07-30T20:09:08Z</time>
      </trkpt>
      <trkpt lat="48.6664" lon="-1.35359">
        <ele>46.28</ele>
        <time>2021-07-30T20:09:09Z</time>
      </trkpt>
      <trkpt lat="48.66426" lon="-1.35383">
        <ele>31.86</ele>
        <time>2021-07-30T20:09:21Z</time>
      </trkpt>
      <trkpt lat="48.66321" lon="-1.35377">
        <ele>28.98</ele>
        <time>2021-07-30T20:09:28Z</time>
      </trkpt>
      <trkpt lat="48.66311" lon="-1.35379">
        <ele>27.53</ele>
        <time>2021-07-30T20:09:29Z</time>
      </trkpt>
      <trkpt lat="48.66301" lon="-1.35381">
        <ele>27.05</ele>
        <time>2021-07-30T20:09:30Z</time>
      </trkpt>
      <trkpt lat="48.66295" lon="-1.35382">
        <ele>26.09</ele>
        <time>2021-07-30T20:09:31Z</time>
      </trkpt>
      <trkpt lat="48.66281" lon="-1.35391">
        <ele>24.65</ele>
        <time>2021-07-30T20:09:36Z</time>
      </trkpt>
      <trkpt lat="48.66276" lon="-1.35389">
        <ele>24.65</ele>
        <time>2021-07-30T20:09:37Z</time>
      </trkpt>
      <trkpt lat="48.66276" lon="-1.35389">
        <ele>25.61</ele>
        <time>2021-07-30T20:09:38Z</time>
      </trkpt>
      <trkpt lat="48.66256" lon="-1.35371">
        <ele>25.61</ele>
        <time>2021-07-30T20:09:40Z</time>
      </trkpt>
      <trkpt lat="48.66256" lon="-1.35371">
        <ele>26.09</ele>
        <time>2021-07-30T20:09:41Z</time>
      </trkpt>
      <trkpt lat="48.66152" lon="-1.35363">
        <ele>24.17</ele>
        <time>2021-07-30T20:09:49Z</time>
      </trkpt>
      <trkpt lat="48.65977" lon="-1.35349">
        <ele>22.25</ele>
        <time>2021-07-30T20:09:59Z</time>
      </trkpt>
      <trkpt lat="48.65725" lon="-1.3533">
        <ele>24.17</ele>
        <time>2021-07-30T20:10:14Z</time>
      </trkpt>
      <trkpt lat="48.65547" lon="-1.35312">
        <ele>26.09</ele>
        <time>2021-07-30T20:10:27Z</time>
      </trkpt>
      <trkpt lat="48.65536" lon="-1.35314">
        <ele>26.09</ele>
        <time>2021-07-30T20:10:28Z</time>
      </trkpt>
      <trkpt lat="48.65536" lon="-1.35314">
        <ele>26.09</ele>
        <time>2021-07-30T20:10:29Z</time>
      </trkpt>
      <trkpt lat="48.65529" lon="-1.35324">
        <ele>26.09</ele>
        <time>2021-07-30T20:10:30Z</time>
      </trkpt>
      <trkpt lat="48.65521" lon="-1.35326">
        <ele>26.09</ele>
        <time>2021-07-30T20:10:31Z</time>
      </trkpt>
      <trkpt lat="48.65514" lon="-1.35325">
        <ele>27.05</ele>
        <time>2021-07-30T20:10:32Z</time>
      </trkpt>
      <trkpt lat="48.65512" lon="-1.35325">
        <ele>27.05</ele>
        <time>2021-07-30T20:10:33Z</time>
      </trkpt>
      <trkpt lat="48.65501" lon="-1.35303">
        <ele>26.09</ele>
        <time>2021-07-30T20:10:34Z</time>
      </trkpt>
      <trkpt lat="48.65493" lon="-1.35302">
        <ele>26.09</ele>
        <time>2021-07-30T20:10:35Z</time>
      </trkpt>
      <trkpt lat="48.65483" lon="-1.35301">
        <ele>26.09</ele>
        <time>2021-07-30T20:10:36Z</time>
      </trkpt>
      <trkpt lat="48.65474" lon="-1.353">
        <ele>26.57</ele>
        <time>2021-07-30T20:10:37Z</time>
      </trkpt>
      <trkpt lat="48.65363" lon="-1.35285">
        <ele>21.77</ele>
        <time>2021-07-30T20:10:46Z</time>
      </trkpt>
      <trkpt lat="48.65222" lon="-1.3521">
        <ele>14.56</ele>
        <time>2021-07-30T20:10:55Z</time>
      </trkpt>
      <trkpt lat="48.65133" lon="-1.35107">
        <ele>8.31</ele>
        <time>2021-07-30T20:11:02Z</time>
      </trkpt>
      <trkpt lat="48.65082" lon="-1.35">
        <ele>7.35</ele>
        <time>2021-07-30T20:11:08Z</time>
      </trkpt>
      <trkpt lat="48.65077" lon="-1.34989">
        <ele>7.35</ele>
        <time>2021-07-30T20:11:09Z</time>
      </trkpt>
      <trkpt lat="48.65069" lon="-1.34988">
        <ele>7.83</ele>
        <time>2021-07-30T20:11:10Z</time>
      </trkpt>
      <trkpt lat="48.65062" lon="-1.34987">
        <ele>7.83</ele>
        <time>2021-07-30T20:11:11Z</time>
      </trkpt>
      <trkpt lat="48.65055" lon="-1.34986">
        <ele>8.31</ele>
        <time>2021-07-30T20:11:12Z</time>
      </trkpt>
      <trkpt lat="48.65044" lon="-1.34996">
        <ele>8.79</ele>
        <time>2021-07-30T20:11:13Z</time>
      </trkpt>
      <trkpt lat="48.6504" lon="-1.35004">
        <ele>8.31</ele>
        <time>2021-07-30T20:11:14Z</time>
      </trkpt>
      <trkpt lat="48.65017" lon="-1.35016">
        <ele>7.83</ele>
        <time>2021-07-30T20:11:17Z</time>
      </trkpt>
      <trkpt lat="48.65017" lon="-1.35016">
        <ele>7.83</ele>
        <time>2021-07-30T20:11:18Z</time>
      </trkpt>
      <trkpt lat="48.65012" lon="-1.35025">
        <ele>7.35</ele>
        <time>2021-07-30T20:11:19Z</time>
      </trkpt>
      <trkpt lat="48.64978" lon="-1.35108">
        <ele>4.94</ele>
        <time>2021-07-30T20:11:28Z</time>
      </trkpt>
      <trkpt lat="48.64952" lon="-1.35174">
        <ele>3.02</ele>
        <time>2021-07-30T20:11:34Z</time>
      </trkpt>
      <trkpt lat="48.6495" lon="-1.35186">
        <ele>2.54</ele>
        <time>2021-07-30T20:11:35Z</time>
      </trkpt>
      <trkpt lat="48.64948" lon="-1.35199">
        <ele>2.06</ele>
        <time>2021-07-30T20:11:36Z</time>
      </trkpt>
      <trkpt lat="48.64947" lon="-1.3521">
        <ele>2.06</ele>
        <time>2021-07-30T20:11:37Z</time>
      </trkpt>
      <trkpt lat="48.64945" lon="-1.35221">
        <ele>2.06</ele>
        <time>2021-07-30T20:11:38Z</time>
      </trkpt>
      <trkpt lat="48.64944" lon="-1.35232">
        <ele>2.06</ele>
        <time>2021-07-30T20:11:39Z</time>
      </trkpt>
      <trkpt lat="48.64955" lon="-1.35244">
        <ele>2.54</ele>
        <time>2021-07-30T20:11:40Z</time>
      </trkpt>
      <trkpt lat="48.64958" lon="-1.35253">
        <ele>2.54</ele>
        <time>2021-07-30T20:11:41Z</time>
      </trkpt>
      <trkpt lat="48.6496" lon="-1.35266">
        <ele>2.54</ele>
        <time>2021-07-30T20:11:42Z</time>
      </trkpt>
      <trkpt lat="48.64958" lon="-1.35274">
        <ele>2.54</ele>
        <time>2021-07-30T20:11:43Z</time>
      </trkpt>
      <trkpt lat="48.64956" lon="-1.3528">
        <ele>2.06</ele>
        <time>2021-07-30T20:11:44Z</time>
      </trkpt>
      <trkpt lat="48.6495" lon="-1.35284">
        <ele>2.54</ele>
        <time>2021-07-30T20:11:45Z</time>
      </trkpt>
      <trkpt lat="48.64946" lon="-1.35286">
        <ele>2.54</ele>
        <time>2021-07-30T20:11:46Z</time>
      </trkpt>
      <trkpt lat="48.64942" lon="-1.35284">
        <ele>3.02</ele>
        <time>2021-07-30T20:11:47Z</time>
      </trkpt>
      <trkpt lat="48.64937" lon="-1.3528">
        <ele>3.5</ele>
        <time>2021-07-30T20:11:48Z</time>
      </trkpt>
      <trkpt lat="48.64931" lon="-1.35275">
        <ele>3.98</ele>
        <time>2021-07-30T20:11:49Z</time>
      </trkpt>
      <trkpt lat="48.64925" lon="-1.35271">
        <ele>3.98</ele>
        <time>2021-07-30T20:11:50Z</time>
      </trkpt>
      <trkpt lat="48.64918" lon="-1.35267">
        <ele>4.46</ele>
        <time>2021-07-30T20:11:51Z</time>
      </trkpt>
      <trkpt lat="48.6491" lon="-1.35263">
        <ele>4.94</ele>
        <time>2021-07-30T20:11:52Z</time>
      </trkpt>
      <trkpt lat="48.64806" lon="-1.35248">
        <ele>11.67</ele>
        <time>2021-07-30T20:12:00Z</time>
      </trkpt>
      <trkpt lat="48.64649" lon="-1.35235">
        <ele>17.44</ele>
        <time>2021-07-30T20:12:10Z</time>
      </trkpt>
      <trkpt lat="48.6435" lon="-1.35211">
        <ele>17.92</ele>
        <time>2021-07-30T20:12:26Z</time>
      </trkpt>
      <trkpt lat="48.63938" lon="-1.35175">
        <ele>14.08</ele>
        <time>2021-07-30T20:12:48Z</time>
      </trkpt>
      <trkpt lat="48.63697" lon="-1.35152">
        <ele>11.19</ele>
        <time>2021-07-30T20:13:01Z</time>
      </trkpt>
      <trkpt lat="48.63678" lon="-1.35145">
        <ele>11.19</ele>
        <time>2021-07-30T20:13:02Z</time>
      </trkpt>
      <trkpt lat="48.6366" lon="-1.35137">
        <ele>9.75</ele>
        <time>2021-07-30T20:13:03Z</time>
      </trkpt>
      <trkpt lat="48.63642" lon="-1.35127">
        <ele>8.79</ele>
        <time>2021-07-30T20:13:04Z</time>
      </trkpt>
      <trkpt lat="48.63626" lon="-1.35116">
        <ele>8.31</ele>
        <time>2021-07-30T20:13:05Z</time>
      </trkpt>
      <trkpt lat="48.63545" lon="-1.35076">
        <ele>4.94</ele>
        <time>2021-07-30T20:13:10Z</time>
      </trkpt>
      <trkpt lat="48.63528" lon="-1.35073">
        <ele>4.46</ele>
        <time>2021-07-30T20:13:11Z</time>
      </trkpt>
      <trkpt lat="48.63284" lon="-1.35065">
        <ele>8.31</ele>
        <time>2021-07-30T20:13:26Z</time>
      </trkpt>
      <trkpt lat="48.63184" lon="-1.35063">
        <ele>11.19</ele>
        <time>2021-07-30T20:13:36Z</time>
      </trkpt>
      <trkpt lat="48.63129" lon="-1.35063">
        <ele>9.27</ele>
        <time>2021-07-30T20:13:44Z</time>
      </trkpt>
      <trkpt lat="48.63125" lon="-1.35063">
        <ele>9.27</ele>
        <time>2021-07-30T20:13:45Z</time>
      </trkpt>
      <trkpt lat="48.63122" lon="-1.35069">
        <ele>8.79</ele>
        <time>2021-07-30T20:13:46Z</time>
      </trkpt>
      <trkpt lat="48.63122" lon="-1.35073">
        <ele>7.83</ele>
        <time>2021-07-30T20:13:47Z</time>
      </trkpt>
      <trkpt lat="48.63122" lon="-1.35085">
        <ele>7.35</ele>
        <time>2021-07-30T20:13:48Z</time>
      </trkpt>
      <trkpt lat="48.63122" lon="-1.35085">
        <ele>6.87</ele>
        <time>2021-07-30T20:13:49Z</time>
      </trkpt>
      <trkpt lat="48.63123" lon="-1.3517">
        <ele>3.02</ele>
        <time>2021-07-30T20:13:59Z</time>
      </trkpt>
      <trkpt lat="48.63125" lon="-1.35205">
        <ele>3.02</ele>
        <time>2021-07-30T20:14:02Z</time>
      </trkpt>
      <trkpt lat="48.63127" lon="-1.35216">
        <ele>3.02</ele>
        <time>2021-07-30T20:14:03Z</time>
      </trkpt>
      <trkpt lat="48.63136" lon="-1.3527">
        <ele>3.02</ele>
        <time>2021-07-30T20:14:08Z</time>
      </trkpt>
      <trkpt lat="48.63143" lon="-1.35287">
        <ele>3.02</ele>
        <time>2021-07-30T20:14:09Z</time>
      </trkpt>
      <trkpt lat="48.63143" lon="-1.35287">
        <ele>3.02</ele>
        <time>2021-07-30T20:14:10Z</time>
      </trkpt>
      <trkpt lat="48.63167" lon="-1.35329">
        <ele>3.02</ele>
        <time>2021-07-30T20:14:15Z</time>
      </trkpt>
      <trkpt lat="48.63172" lon="-1.35338">
        <ele>3.02</ele>
        <time>2021-07-30T20:14:16Z</time>
      </trkpt>
      <trkpt lat="48.63176" lon="-1.35346">
        <ele>3.02</ele>
        <time>2021-07-30T20:14:17Z</time>
      </trkpt>
      <trkpt lat="48.63181" lon="-1.35355">
        <ele>2.54</ele>
        <time>2021-07-30T20:14:18Z</time>
      </trkpt>
      <trkpt lat="48.63185" lon="-1.35366">
        <ele>2.06</ele>
        <time>2021-07-30T20:14:19Z</time>
      </trkpt>
      <trkpt lat="48.63186" lon="-1.35377">
        <ele>2.06</ele>
        <time>2021-07-30T20:14:20Z</time>
      </trkpt>
      <trkpt lat="48.63188" lon="-1.3539">
        <ele>2.06</ele>
        <time>2021-07-30T20:14:21Z</time>
      </trkpt>
      <trkpt lat="48.63195" lon="-1.35487">
        <ele>3.98</ele>
        <time>2021-07-30T20:14:30Z</time>
      </trkpt>
      <trkpt lat="48.63198" lon="-1.35648">
        <ele>11.19</ele>
        <time>2021-07-30T20:14:39Z</time>
      </trkpt>
      <trkpt lat="48.63197" lon="-1.35915">
        <ele>21.77</ele>
        <time>2021-07-30T20:14:50Z</time>
      </trkpt>
      <trkpt lat="48.63198" lon="-1.35933">
        <ele>23.69</ele>
        <time>2021-07-30T20:14:52Z</time>
      </trkpt>
      <trkpt lat="48.63199" lon="-1.35951">
        <ele>24.17</ele>
        <time>2021-07-30T20:14:53Z</time>
      </trkpt>
      <trkpt lat="48.63207" lon="-1.35981">
        <ele>25.13</ele>
        <time>2021-07-30T20:14:54Z</time>
      </trkpt>
      <trkpt lat="48.63207" lon="-1.35981">
        <ele>25.13</ele>
        <time>2021-07-30T20:14:55Z</time>
      </trkpt>
      <trkpt lat="48.63211" lon="-1.35997">
        <ele>24.65</ele>
        <time>2021-07-30T20:14:56Z</time>
      </trkpt>
      <trkpt lat="48.6324" lon="-1.36101">
        <ele>25.61</ele>
        <time>2021-07-30T20:15:05Z</time>
      </trkpt>
      <trkpt lat="48.6326" lon="-1.36223">
        <ele>29.46</ele>
        <time>2021-07-30T20:15:15Z</time>
      </trkpt>
      <trkpt lat="48.63263" lon="-1.36347">
        <ele>30.42</ele>
        <time>2021-07-30T20:15:23Z</time>
      </trkpt>
      <trkpt lat="48.63263" lon="-1.36347">
        <ele>30.42</ele>
        <time>2021-07-30T20:15:24Z</time>
      </trkpt>
      <trkpt lat="48.63258" lon="-1.36361">
        <ele>30.9</ele>
        <time>2021-07-30T20:15:25Z</time>
      </trkpt>
      <trkpt lat="48.63258" lon="-1.36361">
        <ele>30.9</ele>
        <time>2021-07-30T20:15:26Z</time>
      </trkpt>
      <trkpt lat="48.63253" lon="-1.36369">
        <ele>30.9</ele>
        <time>2021-07-30T20:15:27Z</time>
      </trkpt>
      <trkpt lat="48.63247" lon="-1.36377">
        <ele>31.38</ele>
        <time>2021-07-30T20:15:28Z</time>
      </trkpt>
      <trkpt lat="48.63241" lon="-1.36387">
        <ele>31.38</ele>
        <time>2021-07-30T20:15:29Z</time>
      </trkpt>
      <trkpt lat="48.63235" lon="-1.36396">
        <ele>31.86</ele>
        <time>2021-07-30T20:15:30Z</time>
      </trkpt>
      <trkpt lat="48.63229" lon="-1.36406">
        <ele>32.34</ele>
        <time>2021-07-30T20:15:31Z</time>
      </trkpt>
      <trkpt lat="48.63223" lon="-1.36419">
        <ele>32.34</ele>
        <time>2021-07-30T20:15:32Z</time>
      </trkpt>
      <trkpt lat="48.63219" lon="-1.36433">
        <ele>31.86</ele>
        <time>2021-07-30T20:15:33Z</time>
      </trkpt>
      <trkpt lat="48.63216" lon="-1.36446">
        <ele>31.86</ele>
        <time>2021-07-30T20:15:34Z</time>
      </trkpt>
      <trkpt lat="48.63202" lon="-1.3649">
        <ele>30.42</ele>
        <time>2021-07-30T20:15:37Z</time>
      </trkpt>
      <trkpt lat="48.63197" lon="-1.36504">
        <ele>30.9</ele>
        <time>2021-07-30T20:15:38Z</time>
      </trkpt>
      <trkpt lat="48.63192" lon="-1.36519">
        <ele>30.42</ele>
        <time>2021-07-30T20:15:39Z</time>
      </trkpt>
      <trkpt lat="48.63186" lon="-1.36532">
        <ele>30.9</ele>
        <time>2021-07-30T20:15:40Z</time>
      </trkpt>
      <trkpt lat="48.63177" lon="-1.36544">
        <ele>30.42</ele>
        <time>2021-07-30T20:15:41Z</time>
      </trkpt>
      <trkpt lat="48.63141" lon="-1.36597">
        <ele>28.98</ele>
        <time>2021-07-30T20:15:44Z</time>
      </trkpt>
      <trkpt lat="48.63141" lon="-1.36597">
        <ele>28.98</ele>
        <time>2021-07-30T20:15:45Z</time>
      </trkpt>
      <trkpt lat="48.63132" lon="-1.36611">
        <ele>28.5</ele>
        <time>2021-07-30T20:15:46Z</time>
      </trkpt>
      <trkpt lat="48.63029" lon="-1.36851">
        <ele>22.25</ele>
        <time>2021-07-30T20:15:59Z</time>
      </trkpt>
      <trkpt lat="48.63003" lon="-1.36913">
        <ele>21.77</ele>
        <time>2021-07-30T20:16:03Z</time>
      </trkpt>
      <trkpt lat="48.62996" lon="-1.36926">
        <ele>22.73</ele>
        <time>2021-07-30T20:16:04Z</time>
      </trkpt>
      <trkpt lat="48.62989" lon="-1.36939">
        <ele>22.73</ele>
        <time>2021-07-30T20:16:05Z</time>
      </trkpt>
      <trkpt lat="48.62876" lon="-1.37089">
        <ele>23.69</ele>
        <time>2021-07-30T20:16:18Z</time>
      </trkpt>
      <trkpt lat="48.62867" lon="-1.37103">
        <ele>23.21</ele>
        <time>2021-07-30T20:16:19Z</time>
      </trkpt>
      <trkpt lat="48.62862" lon="-1.37119">
        <ele>22.73</ele>
        <time>2021-07-30T20:16:20Z</time>
      </trkpt>
      <trkpt lat="48.62857" lon="-1.37136">
        <ele>23.21</ele>
        <time>2021-07-30T20:16:21Z</time>
      </trkpt>
      <trkpt lat="48.62851" lon="-1.37153">
        <ele>23.21</ele>
        <time>2021-07-30T20:16:22Z</time>
      </trkpt>
      <trkpt lat="48.62848" lon="-1.37171">
        <ele>23.21</ele>
        <time>2021-07-30T20:16:23Z</time>
      </trkpt>
      <trkpt lat="48.62835" lon="-1.37252">
        <ele>22.25</ele>
        <time>2021-07-30T20:16:28Z</time>
      </trkpt>
      <trkpt lat="48.62836" lon="-1.37267">
        <ele>22.25</ele>
        <time>2021-07-30T20:16:29Z</time>
      </trkpt>
      <trkpt lat="48.62837" lon="-1.37283">
        <ele>22.73</ele>
        <time>2021-07-30T20:16:30Z</time>
      </trkpt>
      <trkpt lat="48.62845" lon="-1.37315">
        <ele>23.21</ele>
        <time>2021-07-30T20:16:31Z</time>
      </trkpt>
      <trkpt lat="48.62845" lon="-1.37315">
        <ele>23.21</ele>
        <time>2021-07-30T20:16:32Z</time>
      </trkpt>
      <trkpt lat="48.6285" lon="-1.37331">
        <ele>22.73</ele>
        <time>2021-07-30T20:16:33Z</time>
      </trkpt>
      <trkpt lat="48.62909" lon="-1.37541">
        <ele>17.92</ele>
        <time>2021-07-30T20:16:45Z</time>
      </trkpt>
      <trkpt lat="48.6293" lon="-1.37677">
        <ele>15.04</ele>
        <time>2021-07-30T20:16:52Z</time>
      </trkpt>
      <trkpt lat="48.6293" lon="-1.37696">
        <ele>13.6</ele>
        <time>2021-07-30T20:16:53Z</time>
      </trkpt>
      <trkpt lat="48.62928" lon="-1.37714">
        <ele>12.63</ele>
        <time>2021-07-30T20:16:54Z</time>
      </trkpt>
      <trkpt lat="48.62926" lon="-1.37732">
        <ele>11.67</ele>
        <time>2021-07-30T20:16:55Z</time>
      </trkpt>
      <trkpt lat="48.62924" lon="-1.37751">
        <ele>11.67</ele>
        <time>2021-07-30T20:16:56Z</time>
      </trkpt>
      <trkpt lat="48.62922" lon="-1.3777">
        <ele>11.19</ele>
        <time>2021-07-30T20:16:57Z</time>
      </trkpt>
      <trkpt lat="48.62921" lon="-1.37807">
        <ele>10.23</ele>
        <time>2021-07-30T20:16:58Z</time>
      </trkpt>
      <trkpt lat="48.62921" lon="-1.37807">
        <ele>10.71</ele>
        <time>2021-07-30T20:16:59Z</time>
      </trkpt>
      <trkpt lat="48.62934" lon="-1.38006">
        <ele>17.44</ele>
        <time>2021-07-30T20:17:08Z</time>
      </trkpt>
      <trkpt lat="48.62947" lon="-1.3824">
        <ele>20.81</ele>
        <time>2021-07-30T20:17:18Z</time>
      </trkpt>
      <trkpt lat="48.62948" lon="-1.38339">
        <ele>19.36</ele>
        <time>2021-07-30T20:17:23Z</time>
      </trkpt>
      <trkpt lat="48.62949" lon="-1.38355">
        <ele>19.36</ele>
        <time>2021-07-30T20:17:24Z</time>
      </trkpt>
      <trkpt lat="48.62954" lon="-1.38372">
        <ele>19.84</ele>
        <time>2021-07-30T20:17:25Z</time>
      </trkpt>
      <trkpt lat="48.6302" lon="-1.38553">
        <ele>19.84</ele>
        <time>2021-07-30T20:17:36Z</time>
      </trkpt>
      <trkpt lat="48.63099" lon="-1.38703">
        <ele>19.84</ele>
        <time>2021-07-30T20:17:48Z</time>
      </trkpt>
      <trkpt lat="48.63115" lon="-1.38735">
        <ele>19.36</ele>
        <time>2021-07-30T20:17:54Z</time>
      </trkpt>
      <trkpt lat="48.63112" lon="-1.38738">
        <ele>18.88</ele>
        <time>2021-07-30T20:17:55Z</time>
      </trkpt>
      <trkpt lat="48.63109" lon="-1.3874">
        <ele>18.88</ele>
        <time>2021-07-30T20:17:56Z</time>
      </trkpt>
      <trkpt lat="48.63106" lon="-1.38743">
        <ele>18.4</ele>
        <time>2021-07-30T20:17:57Z</time>
      </trkpt>
      <trkpt lat="48.63103" lon="-1.38746">
        <ele>18.4</ele>
        <time>2021-07-30T20:17:58Z</time>
      </trkpt>
      <trkpt lat="48.631" lon="-1.38749">
        <ele>18.4</ele>
        <time>2021-07-30T20:17:59Z</time>
      </trkpt>
      <trkpt lat="48.63037" lon="-1.38766">
        <ele>17.44</ele>
        <time>2021-07-30T20:18:08Z</time>
      </trkpt>
      <trkpt lat="48.6292" lon="-1.38789">
        <ele>19.36</ele>
        <time>2021-07-30T20:18:19Z</time>
      </trkpt>
      <trkpt lat="48.62798" lon="-1.38807">
        <ele>25.13</ele>
        <time>2021-07-30T20:18:31Z</time>
      </trkpt>
      <trkpt lat="48.62701" lon="-1.38828">
        <ele>25.61</ele>
        <time>2021-07-30T20:18:42Z</time>
      </trkpt>
      <trkpt lat="48.62699" lon="-1.38829">
        <ele>26.57</ele>
        <time>2021-07-30T20:18:54Z</time>
      </trkpt>
      <trkpt lat="48.62699" lon="-1.38829">
        <ele>26.57</ele>
        <time>2021-07-30T20:19:06Z</time>
      </trkpt>
      <trkpt lat="48.62697" lon="-1.38835">
        <ele>26.09</ele>
        <time>2021-07-30T20:19:07Z</time>
      </trkpt>
      <trkpt lat="48.62698" lon="-1.3884">
        <ele>26.09</ele>
        <time>2021-07-30T20:19:08Z</time>
      </trkpt>
      <trkpt lat="48.62698" lon="-1.38846">
        <ele>26.09</ele>
        <time>2021-07-30T20:19:09Z</time>
      </trkpt>
      <trkpt lat="48.62699" lon="-1.38853">
        <ele>25.13</ele>
        <time>2021-07-30T20:19:10Z</time>
      </trkpt>
      <trkpt lat="48.62699" lon="-1.38861">
        <ele>25.61</ele>
        <time>2021-07-30T20:19:11Z</time>
      </trkpt>
      <trkpt lat="48.62707" lon="-1.38979">
        <ele>26.09</ele>
        <time>2021-07-30T20:19:19Z</time>
      </trkpt>
      <trkpt lat="48.62703" lon="-1.39221">
        <ele>23.21</ele>
        <time>2021-07-30T20:19:30Z</time>
      </trkpt>
      <trkpt lat="48.62695" lon="-1.39588">
        <ele>19.84</ele>
        <time>2021-07-30T20:19:44Z</time>
      </trkpt>
      <trkpt lat="48.62722" lon="-1.39881">
        <ele>18.88</ele>
        <time>2021-07-30T20:19:55Z</time>
      </trkpt>
      <trkpt lat="48.62768" lon="-1.40349">
        <ele>13.6</ele>
        <time>2021-07-30T20:20:12Z</time>
      </trkpt>
      <trkpt lat="48.62785" lon="-1.40545">
        <ele>12.63</ele>
        <time>2021-07-30T20:20:20Z</time>
      </trkpt>
      <trkpt lat="48.62785" lon="-1.40689">
        <ele>13.6</ele>
        <time>2021-07-30T20:20:30Z</time>
      </trkpt>
      <trkpt lat="48.62789" lon="-1.40763">
        <ele>15.04</ele>
        <time>2021-07-30T20:20:38Z</time>
      </trkpt>
      <trkpt lat="48.62802" lon="-1.40872">
        <ele>19.36</ele>
        <time>2021-07-30T20:20:47Z</time>
      </trkpt>
      <trkpt lat="48.6282" lon="-1.41021">
        <ele>20.32</ele>
        <time>2021-07-30T20:20:59Z</time>
      </trkpt>
      <trkpt lat="48.62842" lon="-1.41159">
        <ele>17.44</ele>
        <time>2021-07-30T20:21:12Z</time>
      </trkpt>
      <trkpt lat="48.62843" lon="-1.41171">
        <ele>16.96</ele>
        <time>2021-07-30T20:21:13Z</time>
      </trkpt>
      <trkpt lat="48.6284" lon="-1.41198">
        <ele>15.52</ele>
        <time>2021-07-30T20:21:14Z</time>
      </trkpt>
      <trkpt lat="48.6284" lon="-1.41198">
        <ele>14.56</ele>
        <time>2021-07-30T20:21:15Z</time>
      </trkpt>
      <trkpt lat="48.62828" lon="-1.41391">
        <ele>11.19</ele>
        <time>2021-07-30T20:21:25Z</time>
      </trkpt>
      <trkpt lat="48.62845" lon="-1.41731">
        <ele>8.79</ele>
        <time>2021-07-30T20:21:39Z</time>
      </trkpt>
      <trkpt lat="48.62842" lon="-1.41756">
        <ele>8.31</ele>
        <time>2021-07-30T20:21:40Z</time>
      </trkpt>
      <trkpt lat="48.62838" lon="-1.4178">
        <ele>7.83</ele>
        <time>2021-07-30T20:21:41Z</time>
      </trkpt>
      <trkpt lat="48.62798" lon="-1.4201">
        <ele>9.75</ele>
        <time>2021-07-30T20:21:50Z</time>
      </trkpt>
      <trkpt lat="48.62796" lon="-1.42035">
        <ele>11.19</ele>
        <time>2021-07-30T20:21:51Z</time>
      </trkpt>
      <trkpt lat="48.628" lon="-1.42058">
        <ele>11.67</ele>
        <time>2021-07-30T20:21:52Z</time>
      </trkpt>
      <trkpt lat="48.62808" lon="-1.42108">
        <ele>12.15</ele>
        <time>2021-07-30T20:21:53Z</time>
      </trkpt>
      <trkpt lat="48.62808" lon="-1.42108">
        <ele>12.15</ele>
        <time>2021-07-30T20:21:54Z</time>
      </trkpt>
      <trkpt lat="48.6284" lon="-1.42352">
        <ele>9.75</ele>
        <time>2021-07-30T20:22:04Z</time>
      </trkpt>
      <trkpt lat="48.6288" lon="-1.42581">
        <ele>5.91</ele>
        <time>2021-07-30T20:22:13Z</time>
      </trkpt>
      <trkpt lat="48.62938" lon="-1.42915">
        <ele>2.06</ele>
        <time>2021-07-30T20:22:26Z</time>
      </trkpt>
      <trkpt lat="48.62944" lon="-1.43029">
        <ele>1.58</ele>
        <time>2021-07-30T20:22:33Z</time>
      </trkpt>
      <trkpt lat="48.62945" lon="-1.432">
        <ele>0.62</ele>
        <time>2021-07-30T20:22:43Z</time>
      </trkpt>
      <trkpt lat="48.62952" lon="-1.433">
        <ele>1.1</ele>
        <time>2021-07-30T20:22:48Z</time>
      </trkpt>
      <trkpt lat="48.62956" lon="-1.43316">
        <ele>1.1</ele>
        <time>2021-07-30T20:22:49Z</time>
      </trkpt>
      <trkpt lat="48.62961" lon="-1.4333">
        <ele>0.14</ele>
        <time>2021-07-30T20:22:50Z</time>
      </trkpt>
      <trkpt lat="48.63017" lon="-1.43491">
        <ele>1.58</ele>
        <time>2021-07-30T20:23:03Z</time>
      </trkpt>
      <trkpt lat="48.63025" lon="-1.43515">
        <ele>1.58</ele>
        <time>2021-07-30T20:23:05Z</time>
      </trkpt>
      <trkpt lat="48.63025" lon="-1.43515">
        <ele>1.58</ele>
        <time>2021-07-30T20:23:06Z</time>
      </trkpt>
      <trkpt lat="48.63024" lon="-1.43522">
        <ele>1.58</ele>
        <time>2021-07-30T20:23:07Z</time>
      </trkpt>
      <trkpt lat="48.63023" lon="-1.43525">
        <ele>2.06</ele>
        <time>2021-07-30T20:23:08Z</time>
      </trkpt>
      <trkpt lat="48.63014" lon="-1.43536">
        <ele>2.54</ele>
        <time>2021-07-30T20:23:09Z</time>
      </trkpt>
      <trkpt lat="48.63014" lon="-1.43536">
        <ele>2.54</ele>
        <time>2021-07-30T20:23:10Z</time>
      </trkpt>
      <trkpt lat="48.62946" lon="-1.43623">
        <ele>4.46</ele>
        <time>2021-07-30T20:23:20Z</time>
      </trkpt>
      <trkpt lat="48.62845" lon="-1.43765">
        <ele>3.02</ele>
        <time>2021-07-30T20:23:31Z</time>
      </trkpt>
      <trkpt lat="48.62788" lon="-1.43932">
        <ele>1.58</ele>
        <time>2021-07-30T20:23:40Z</time>
      </trkpt>
      <trkpt lat="48.6277" lon="-1.44035">
        <ele>1.1</ele>
        <time>2021-07-30T20:23:45Z</time>
      </trkpt>
      <trkpt lat="48.6276" lon="-1.44075">
        <ele>1.1</ele>
        <time>2021-07-30T20:23:46Z</time>
      </trkpt>
      <trkpt lat="48.6276" lon="-1.44075">
        <ele>1.58</ele>
        <time>2021-07-30T20:23:47Z</time>
      </trkpt>
      <trkpt lat="48.62658" lon="-1.44286">
        <ele>3.02</ele>
        <time>2021-07-30T20:23:58Z</time>
      </trkpt>
      <trkpt lat="48.62551" lon="-1.44444">
        <ele>2.06</ele>
        <time>2021-07-30T20:24:10Z</time>
      </trkpt>
      <trkpt lat="48.62516" lon="-1.44509">
        <ele>3.02</ele>
        <time>2021-07-30T20:24:17Z</time>
      </trkpt>
      <trkpt lat="48.62484" lon="-1.44545">
        <ele>2.54</ele>
        <time>2021-07-30T20:24:28Z</time>
      </trkpt>
      <trkpt lat="48.62484" lon="-1.44545">
        <ele>2.54</ele>
        <time>2021-07-30T20:24:34Z</time>
      </trkpt>
      <trkpt lat="48.62482" lon="-1.44547">
        <ele>3.02</ele>
        <time>2021-07-30T20:24:38Z</time>
      </trkpt>
      <trkpt lat="48.62481" lon="-1.44547">
        <ele>3.02</ele>
        <time>2021-07-30T20:24:39Z</time>
      </trkpt>
      <trkpt lat="48.62481" lon="-1.44547">
        <ele>2.54</ele>
        <time>2021-07-30T20:24:40Z</time>
      </trkpt>
      <trkpt lat="48.6248" lon="-1.44548">
        <ele>2.54</ele>
        <time>2021-07-30T20:24:41Z</time>
      </trkpt>
      <trkpt lat="48.6248" lon="-1.44548">
        <ele>2.54</ele>
        <time>2021-07-30T20:24:42Z</time>
      </trkpt>
      <trkpt lat="48.62487" lon="-1.44543">
        <ele>2.54</ele>
        <time>2021-07-30T20:25:01Z</time>
      </trkpt>
      <trkpt lat="48.62471" lon="-1.44509">
        <ele>2.06</ele>
        <time>2021-07-30T20:25:19Z</time>
      </trkpt>
      <trkpt lat="48.62453" lon="-1.44462">
        <ele>3.02</ele>
        <time>2021-07-30T20:25:35Z</time>
      </trkpt>
      <trkpt lat="48.62452" lon="-1.44455">
        <ele>3.02</ele>
        <time>2021-07-30T20:25:45Z</time>
      </trkpt>
      <trkpt lat="48.62446" lon="-1.44433">
        <ele>3.02</ele>
        <time>2021-07-30T20:25:57Z</time>
      </trkpt>
      <trkpt lat="48.6245" lon="-1.44439">
        <ele>3.5</ele>
        <time>2021-07-30T20:28:00Z</time>
      </trkpt>
      <trkpt lat="48.62449" lon="-1.4444">
        <ele>3.5</ele>
        <time>2021-07-30T20:28:02Z</time>
      </trkpt>
      <trkpt lat="48.6245" lon="-1.44442">
        <ele>3.5</ele>
        <time>2021-07-30T20:28:15Z</time>
      </trkpt>
      <trkpt lat="48.6245" lon="-1.44447">
        <ele>3.5</ele>
        <time>2021-07-30T20:28:27Z</time>
      </trkpt>
      <trkpt lat="48.62451" lon="-1.44445">
        <ele>3.5</ele>
        <time>2021-07-30T20:28:28Z</time>
      </trkpt>
      <trkpt lat="48.6245" lon="-1.44435">
        <ele>3.98</ele>
        <time>2021-07-30T20:28:45Z</time>
      </trkpt>
      <trkpt lat="48.6245" lon="-1.44436">
        <ele>3.98</ele>
        <time>2021-07-30T20:29:12Z</time>
      </trkpt>
      <trkpt lat="48.62451" lon="-1.44438">
        <ele>3.02</ele>
        <time>2021-07-30T20:38:56Z</time>
      </trkpt>
      <trkpt lat="48.62451" lon="-1.4444">
        <ele>3.02</ele>
        <time>2021-07-30T20:45:33Z</time>
      </trkpt>
      <trkpt lat="48.62451" lon="-1.4444">
        <ele>2.54</ele>
        <time>2021-07-30T20:50:08Z</time>
      </trkpt>
      <trkpt lat="48.62451" lon="-1.44438">
        <ele>2.06</ele>
        <time>2021-07-30T20:55:40Z</time>
      </trkpt>
      <trkpt lat="48.6245" lon="-1.44436">
        <ele>2.54</ele>
        <time>2021-07-30T21:00:45Z</time>
      </trkpt>
      <trkpt lat="48.62449" lon="-1.44436">
        <ele>2.54</ele>
        <time>2021-07-30T21:08:46Z</time>
      </trkpt>
      <trkpt lat="48.6245" lon="-1.44436">
        <ele>2.54</ele>
        <time>2021-07-30T21:18:20Z</time>
      </trkpt>
      <trkpt lat="48.6245" lon="-1.44436">
        <ele>2.54</ele>
        <time>2021-07-30T21:24:13Z</time>
      </trkpt>
      <trkpt lat="48.62449" lon="-1.44436">
        <ele>3.02</ele>
        <time>2021-07-30T21:29:58Z</time>
      </trkpt>
      <trkpt lat="48.62449" lon="-1.44438">
        <ele>3.5</ele>
        <time>2021-07-30T21:33:43Z</time>
      </trkpt>
      <trkpt lat="48.6245" lon="-1.44437">
        <ele>3.98</ele>
        <time>2021-07-30T21:37:06Z</time>
      </trkpt>
      <trkpt lat="48.62451" lon="-1.44436">
        <ele>3.98</ele>
        <time>2021-07-30T21:39:09Z</time>
      </trkpt>
      <trkpt lat="48.62451" lon="-1.44436">
        <ele>4.46</ele>
        <time>2021-07-30T21:42:49Z</time>
      </trkpt>
      <trkpt lat="48.62452" lon="-1.44435">
        <ele>5.91</ele>
        <time>2021-07-30T21:51:16Z</time>
      </trkpt>
    </trkseg>
  </trk>
</gpx>